Main page
METAR-TAF:

METAR-TAF

Airports :

Hood Army Airfield

Fort Hood / Killeen, Texas, United States

latitude: 31-06N, longitude: 097-20W, elevation: 928 ft

Current weather observation

The report was made 22 minutes ago, at 23:58 UTC
Wind 7 mph from the West/Northwest
Temperature 63°F
Humidity 77%
Pressure 29.81 in. Hg
Visibility: 10 miles
Broken clouds at a height of 4400 ft
Overcast at a height of 5500 ft

METAR: KHLR 222358Z AUTO 29006KT 10SM BKN044 OVC055 17/13 A2981 RMK AO2 SLP089 T01690125 10180 20168 52020

Time: 17:20 (00:20 UTC)


TAF: missing

Weather observations and forecasts of more than 4000 airports (METAR and TAF reports).

The available stations are represented by yellow and red dots on the map.

Hover mouse over dot to see the name of the station.

Then click to see weather observations and forecasts.

To change the map : click on the green buttons with a black cross to zoom in, on the green button with a dash to zoom out, or on the green arrows for adjacent maps.


METAR-TAF: